Cuyahoga Falls, Ohio
Current Conditions -  °F | °C
As of 12:54 AM on Friday 31 Oct 2014 (Local Time) from KAKR Reporting Station
Overcast Overcast  
Wind Chill: 43°   Ceiling: 4800
Heat Index: 45°   Visibility: 10mi
Dew Point: 36°   Wind: 5mph
Humidity: 71%   Direction: 160°SSE
Pressure: 30.02"   Gusts: NA
Location:  41.14°N, 81.48°W
Report Text: KAKR 310454Z AUTO 16004KT 10SM OVC048 07/02 A3002 RMK AO2 SLP168 T00720022 401060039
Loading
Personal Weather Stations






























Interactive Weather Map
Tropical Storm Tracking
New forecast layout! Learn more

10-Day Weather Forecast

Advertisements
Track Severe Weather on mobile